sensor_id;sensor_type;location;lat;lon;timestamp;pressure;altitude;pressure_sealevel;temperature;humidity
64876;BME280;51369;49.862;9.908;2023-02-14T00:00:02;100339.13;;;2.48;81.26
64876;BME280;51369;49.862;9.908;2023-02-14T00:02:33;100333.81;;;2.48;82.77
64876;BME280;51369;49.862;9.908;2023-02-14T00:04:59;100341.88;;;2.51;82.55
64876;BME280;51369;49.862;9.908;2023-02-14T00:07:24;100340.97;;;2.51;81.62
64876;BME280;51369;49.862;9.908;2023-02-14T00:09:49;100344.53;;;2.51;82.16
64876;BME280;51369;49.862;9.908;2023-02-14T00:12:15;100345.47;;;2.53;81.32
64876;BME280;51369;49.862;9.908;2023-02-14T00:14:40;100338.41;;;2.55;81.62
64876;BME280;51369;49.862;9.908;2023-02-14T00:17:24;100345.56;;;2.58;81.25
64876;BME280;51369;49.862;9.908;2023-02-14T00:19:50;100334.91;;;2.58;82.28
64876;BME280;51369;49.862;9.908;2023-02-14T00:22:15;100336.69;;;2.59;81.33
64876;BME280;51369;49.862;9.908;2023-02-14T00:24:40;100340.28;;;2.61;82.56
64876;BME280;51369;49.862;9.908;2023-02-14T00:27:06;100334.97;;;2.61;82.19
64876;BME280;51369;49.862;9.908;2023-02-14T00:29:32;100335.88;;;2.63;82.04
64876;BME280;51369;49.862;9.908;2023-02-14T00:31:57;100340.34;;;2.64;81.54
64876;BME280;51369;49.862;9.908;2023-02-14T00:34:23;100334.16;;;2.65;81.82
64876;BME280;51369;49.862;9.908;2023-02-14T00:36:49;100326.16;;;2.65;82.46
64876;BME280;51369;49.862;9.908;2023-02-14T00:39:15;100335.97;;;2.68;82.36
64876;BME280;51369;49.862;9.908;2023-02-14T00:41:41;100332.41;;;2.67;81.60
64876;BME280;51369;49.862;9.908;2023-02-14T00:44:09;100340.44;;;2.69;81.56
64876;BME280;51369;49.862;9.908;2023-02-14T00:46:35;100333.31;;;2.68;81.74
64876;BME280;51369;49.862;9.908;2023-02-14T00:49:00;100338.69;;;2.69;81.86
64876;BME280;51369;49.862;9.908;2023-02-14T00:51:26;100340.44;;;2.69;81.96
64876;BME280;51369;49.862;9.908;2023-02-14T00:53:52;100342.25;;;2.70;81.91
64876;BME280;51369;49.862;9.908;2023-02-14T00:56:18;100341.38;;;2.71;81.30
64876;BME280;51369;49.862;9.908;2023-02-14T00:58:44;100337.88;;;2.73;81.43
64876;BME280;51369;49.862;9.908;2023-02-14T01:01:14;100331.66;;;2.74;82.53
64876;BME280;51369;49.862;9.908;2023-02-14T01:03:40;100333.47;;;2.75;81.89
64876;BME280;51369;49.862;9.908;2023-02-14T01:06:06;100341.47;;;2.75;81.76
64876;BME280;51369;49.862;9.908;2023-02-14T01:08:31;100335.28;;;2.76;82.47
64876;BME280;51369;49.862;9.908;2023-02-14T01:10:57;100338.88;;;2.78;82.24
64876;BME280;51369;49.862;9.908;2023-02-14T01:13:25;100341.56;;;2.80;82.87
64876;BME280;51369;49.862;9.908;2023-02-14T01:15:50;100340.69;;;2.81;81.95
64876;BME280;51369;49.862;9.908;2023-02-14T01:18:17;100345.13;;;2.80;82.29
64876;BME280;51369;49.862;9.908;2023-02-14T01:20:43;100337.13;;;2.80;81.55
64876;BME280;51369;49.862;9.908;2023-02-14T01:23:08;100342.47;;;2.80;82.29
64876;BME280;51369;49.862;9.908;2023-02-14T01:25:36;100341.53;;;2.78;81.90
64876;BME280;51369;49.862;9.908;2023-02-14T01:28:01;100346.88;;;2.78;82.35
64876;BME280;51369;49.862;9.908;2023-02-14T01:30:27;100346.00;;;2.79;82.56
64876;BME280;51369;49.862;9.908;2023-02-14T01:32:52;100343.31;;;2.78;82.15
64876;BME280;51369;49.862;9.908;2023-02-14T01:35:19;100343.31;;;2.78;81.98
64876;BME280;51369;49.862;9.908;2023-02-14T01:37:44;100345.94;;;2.76;81.21
64876;BME280;51369;49.862;9.908;2023-02-14T01:40:10;100341.50;;;2.77;81.72
64876;BME280;51369;49.862;9.908;2023-02-14T01:42:36;100331.72;;;2.77;81.37
64876;BME280;51369;49.862;9.908;2023-02-14T01:45:08;100336.16;;;2.77;82.59
64876;BME280;51369;49.862;9.908;2023-02-14T01:47:40;100343.28;;;2.76;81.12
64876;BME280;51369;49.862;9.908;2023-02-14T01:50:34;100340.59;;;2.76;81.61
64876;BME280;51369;49.862;9.908;2023-02-14T01:53:05;100331.72;;;2.77;82.36
64876;BME280;51369;49.862;9.908;2023-02-14T01:55:38;100331.72;;;2.77;82.19
64876;BME280;51369;49.862;9.908;2023-02-14T01:58:13;100325.56;;;2.80;81.64
64876;BME280;51369;49.862;9.908;2023-02-14T02:00:40;100328.25;;;2.81;82.08
64876;BME280;51369;49.862;9.908;2023-02-14T02:03:24;100335.41;;;2.84;81.90
64876;BME280;51369;49.862;9.908;2023-02-14T02:05:54;100334.56;;;2.85;81.39
64876;BME280;51369;49.862;9.908;2023-02-14T02:08:23;100330.16;;;2.87;81.56
64876;BME280;51369;49.862;9.908;2023-02-14T02:10:48;100336.41;;;2.89;82.06
64876;BME280;51369;49.862;9.908;2023-02-14T02:13:17;100336.41;;;2.89;81.56
64876;BME280;51369;49.862;9.908;2023-02-14T02:19:05;100322.19;;;2.90;83.04
64876;BME280;51369;49.862;9.908;2023-02-14T02:24:30;100312.44;;;2.90;82.57
64876;BME280;51369;49.862;9.908;2023-02-14T02:43:43;100291.91;;;2.88;82.09
64876;BME280;51369;49.862;9.908;2023-02-14T02:46:34;100293.66;;;2.86;82.55
64876;BME280;51369;49.862;9.908;2023-02-14T02:58:53;100301.59;;;2.83;81.26
64876;BME280;51369;49.862;9.908;2023-02-14T03:01:23;100311.34;;;2.81;81.38
64876;BME280;51369;49.862;9.908;2023-02-14T03:03:54;100311.28;;;2.78;81.25
64876;BME280;51369;49.862;9.908;2023-02-14T03:06:40;100307.69;;;2.76;80.76
64876;BME280;51369;49.862;9.908;2023-02-14T03:12:16;100312.97;;;2.73;81.39
64876;BME280;51369;49.862;9.908;2023-02-14T03:17:35;100313.91;;;2.75;81.63
64876;BME280;51369;49.862;9.908;2023-02-14T03:20:15;100310.31;;;2.73;80.96
64876;BME280;51369;49.862;9.908;2023-02-14T03:28:31;100315.59;;;2.71;81.24
64876;BME280;51369;49.862;9.908;2023-02-14T03:33:43;100315.63;;;2.73;80.71
64876;BME280;51369;49.862;9.908;2023-02-14T03:36:16;100312.09;;;2.74;81.14
64876;BME280;51369;49.862;9.908;2023-02-14T03:38:53;100314.78;;;2.74;81.61
64876;BME280;51369;49.862;9.908;2023-02-14T03:41:26;100322.81;;;2.75;81.44
64876;BME280;51369;49.862;9.908;2023-02-14T03:43:57;100313.91;;;2.75;81.19
64876;BME280;51369;49.862;9.908;2023-02-14T03:46:44;100323.69;;;2.76;81.47
64876;BME280;51369;49.862;9.908;2023-02-14T03:49:14;100319.25;;;2.76;81.47
64876;BME280;51369;49.862;9.908;2023-02-14T03:51:45;100326.41;;;2.77;81.40
64876;BME280;51369;49.862;9.908;2023-02-14T03:54:13;100314.81;;;2.77;81.83
64876;BME280;51369;49.862;9.908;2023-02-14T03:56:49;100314.81;;;2.77;82.16
64876;BME280;51369;49.862;9.908;2023-02-14T03:59:19;100313.97;;;2.78;81.96
64876;BME280;51369;49.862;9.908;2023-02-14T04:01:52;100312.19;;;2.78;81.55
64876;BME280;51369;49.862;9.908;2023-02-14T04:04:22;100320.22;;;2.80;81.65
64876;BME280;51369;49.862;9.908;2023-02-14T04:06:49;100316.63;;;2.78;80.88
64876;BME280;51369;49.862;9.908;2023-02-14T04:09:14;100323.72;;;2.77;82.36
64876;BME280;51369;49.862;9.908;2023-02-14T04:11:40;100316.63;;;2.78;81.35
64876;BME280;51369;49.862;9.908;2023-02-14T04:14:05;100324.66;;;2.79;81.98
64876;BME280;51369;49.862;9.908;2023-02-14T04:16:31;100314.88;;;2.80;82.58
64876;BME280;51369;49.862;9.908;2023-02-14T04:19:16;100317.59;;;2.81;82.13
64876;BME280;51369;49.862;9.908;2023-02-14T04:21:48;100315.81;;;2.82;81.27
64876;BME280;51369;49.862;9.908;2023-02-14T04:24:14;100317.63;;;2.83;82.23
64876;BME280;51369;49.862;9.908;2023-02-14T04:26:39;100313.19;;;2.83;82.41
64876;BME280;51369;49.862;9.908;2023-02-14T04:29:21;100311.44;;;2.85;81.26
64876;BME280;51369;49.862;9.908;2023-02-14T04:31:47;100316.88;;;2.90;81.86
64876;BME280;51369;49.862;9.908;2023-02-14T04:34:12;100315.13;;;2.92;81.95
64876;BME280;51369;49.862;9.908;2023-02-14T04:36:38;100316.03;;;2.92;82.28
64876;BME280;51369;49.862;9.908;2023-02-14T04:39:03;100304.47;;;2.93;81.82
64876;BME280;51369;49.862;9.908;2023-02-14T04:41:28;100306.31;;;2.96;81.92
64876;BME280;51369;49.862;9.908;2023-02-14T04:43:54;100304.56;;;2.98;81.20
64876;BME280;51369;49.862;9.908;2023-02-14T04:46:19;100307.25;;;3.00;82.38
64876;BME280;51369;49.862;9.908;2023-02-14T04:48:45;100303.72;;;3.01;81.77
64876;BME280;51369;49.862;9.908;2023-02-14T04:51:10;100301.06;;;3.02;81.58
64876;BME280;51369;49.862;9.908;2023-02-14T04:53:35;100289.53;;;3.03;82.26
64876;BME280;51369;49.862;9.908;2023-02-14T04:56:05;100296.66;;;3.04;82.19
64876;BME280;51369;49.862;9.908;2023-02-14T04:58:30;100291.34;;;3.06;81.59
64876;BME280;51369;49.862;9.908;2023-02-14T05:00:56;100291.38;;;3.07;81.84
64876;BME280;51369;49.862;9.908;2023-02-14T05:03:21;100293.19;;;3.08;81.12
64876;BME280;51369;49.862;9.908;2023-02-14T05:05:46;100293.25;;;3.11;82.08
64876;BME280;51369;49.862;9.908;2023-02-14T05:08:12;100295.03;;;3.12;82.77
64876;BME280;51369;49.862;9.908;2023-02-14T05:10:38;100294.16;;;3.13;82.13
64876;BME280;51369;49.862;9.908;2023-02-14T05:13:03;100286.19;;;3.15;81.91
64876;BME280;51369;49.862;9.908;2023-02-14T05:15:29;100278.19;;;3.16;81.66
64876;BME280;51369;49.862;9.908;2023-02-14T05:17:54;100272.00;;;3.17;82.17
64876;BME280;51369;49.862;9.908;2023-02-14T05:20:19;100278.25;;;3.19;82.64
64876;BME280;51369;49.862;9.908;2023-02-14T05:22:45;100280.06;;;3.20;81.69
64876;BME280;51369;49.862;9.908;2023-02-14T05:25:10;100281.84;;;3.21;81.67
64876;BME280;51369;49.862;9.908;2023-02-14T05:27:35;100279.19;;;3.21;82.16
64876;BME280;51369;49.862;9.908;2023-02-14T05:30:01;100280.97;;;3.22;82.05
64876;BME280;51369;49.862;9.908;2023-02-14T05:32:26;100280.09;;;3.23;82.12
64876;BME280;51369;49.862;9.908;2023-02-14T05:34:52;100274.78;;;3.25;82.30
64876;BME280;51369;49.862;9.908;2023-02-14T05:37:17;100279.25;;;3.26;81.95
64876;BME280;51369;49.862;9.908;2023-02-14T05:39:42;100278.38;;;3.27;81.64
64876;BME280;51369;49.862;9.908;2023-02-14T05:42:08;100279.28;;;3.28;82.45
64876;BME280;51369;49.862;9.908;2023-02-14T05:44:33;100281.09;;;3.29;82.43
64876;BME280;51369;49.862;9.908;2023-02-14T05:46:58;100275.78;;;3.30;81.49
64876;BME280;51369;49.862;9.908;2023-02-14T05:49:24;100277.53;;;3.30;82.56
64876;BME280;51369;49.862;9.908;2023-02-14T05:51:49;100270.44;;;3.30;82.10
64876;BME280;51369;49.862;9.908;2023-02-14T05:54:14;100273.13;;;3.32;82.75
64876;BME280;51369;49.862;9.908;2023-02-14T05:56:40;100273.13;;;3.32;81.53
64876;BME280;51369;49.862;9.908;2023-02-14T05:59:05;100272.25;;;3.33;81.77
64876;BME280;51369;49.862;9.908;2023-02-14T06:01:30;100273.16;;;3.33;81.73
64876;BME280;51369;49.862;9.908;2023-02-14T06:03:56;100277.63;;;3.34;82.53
64876;BME280;51369;49.862;9.908;2023-02-14T06:06:21;100277.63;;;3.34;82.24
64876;BME280;51369;49.862;9.908;2023-02-14T06:08:47;100275.84;;;3.35;81.60
64876;BME280;51369;49.862;9.908;2023-02-14T06:11:12;100282.09;;;3.35;82.06
64876;BME280;51369;49.862;9.908;2023-02-14T06:13:37;100280.31;;;3.36;82.39
64876;BME280;51369;49.862;9.908;2023-02-14T06:16:05;100286.53;;;3.35;81.18
64876;BME280;51369;49.862;9.908;2023-02-14T06:18:30;100279.44;;;3.37;81.87
64876;BME280;51369;49.862;9.908;2023-02-14T06:20:56;100283.94;;;3.39;81.62
64876;BME280;51369;49.862;9.908;2023-02-14T06:23:21;100280.41;;;3.42;81.47
64876;BME280;51369;49.862;9.908;2023-02-14T06:25:47;100283.09;;;3.43;81.88
64876;BME280;51369;49.862;9.908;2023-02-14T06:28:12;100279.53;;;3.43;81.63
64876;BME280;51369;49.862;9.908;2023-02-14T06:30:37;100280.47;;;3.45;81.36
64876;BME280;51369;49.862;9.908;2023-02-14T06:33:03;100279.56;;;3.44;81.44
64876;BME280;51369;49.862;9.908;2023-02-14T06:35:28;100280.47;;;3.45;80.31
64876;BME280;51369;49.862;9.908;2023-02-14T06:37:53;100274.19;;;3.43;81.11
64876;BME280;51369;49.862;9.908;2023-02-14T06:40:19;100279.53;;;3.43;81.87
64876;BME280;51369;49.862;9.908;2023-02-14T06:42:45;100285.81;;;3.45;81.89
64876;BME280;51369;49.862;9.908;2023-02-14T06:45:10;100284.03;;;3.47;81.18
64876;BME280;51369;49.862;9.908;2023-02-14T06:47:36;100287.63;;;3.49;80.80
64876;BME280;51369;49.862;9.908;2023-02-14T06:50:02;100289.38;;;3.48;80.71
64876;BME280;51369;49.862;9.908;2023-02-14T06:52:30;100288.50;;;3.49;81.46
64876;BME280;51369;49.862;9.908;2023-02-14T06:54:55;100287.66;;;3.52;80.70
64876;BME280;51369;49.862;9.908;2023-02-14T06:57:21;100290.31;;;3.50;81.41
64876;BME280;51369;49.862;9.908;2023-02-14T06:59:46;100295.72;;;3.55;81.02
64876;BME280;51369;49.862;9.908;2023-02-14T07:02:11;100294.88;;;3.57;81.21
64876;BME280;51369;49.862;9.908;2023-02-14T07:04:37;100291.31;;;3.57;80.55
64876;BME280;51369;49.862;9.908;2023-02-14T07:07:03;100294.91;;;3.59;81.13
64876;BME280;51369;49.862;9.908;2023-02-14T07:09:28;100298.47;;;3.59;80.97
64876;BME280;51369;49.862;9.908;2023-02-14T07:11:54;100293.13;;;3.59;80.25
64876;BME280;51369;49.862;9.908;2023-02-14T07:14:19;100293.09;;;3.58;81.43
64876;BME280;51369;49.862;9.908;2023-02-14T07:16:44;100289.59;;;3.60;80.52
64876;BME280;51369;49.862;9.908;2023-02-14T07:19:10;100294.06;;;3.62;80.52
64876;BME280;51369;49.862;9.908;2023-02-14T07:21:35;100287.84;;;3.63;81.36
64876;BME280;51369;49.862;9.908;2023-02-14T07:24:00;100288.72;;;3.63;80.76
64876;BME280;51369;49.862;9.908;2023-02-14T07:26:26;100297.56;;;3.57;80.27
64876;BME280;51369;49.862;9.908;2023-02-14T07:28:51;100292.19;;;3.56;80.40
64876;BME280;51369;49.862;9.908;2023-02-14T07:31:17;100294.97;;;3.64;80.77
64876;BME280;51369;49.862;9.908;2023-02-14T07:33:44;100288.53;;;3.51;81.48
64876;BME280;51369;49.862;9.908;2023-02-14T07:36:09;100281.25;;;3.39;80.39
64876;BME280;51369;49.862;9.908;2023-02-14T07:38:35;100285.66;;;3.36;80.87
64876;BME280;51369;49.862;9.908;2023-02-14T07:41:01;100283.84;;;3.33;82.03
64876;BME280;51369;49.862;9.908;2023-02-14T07:43:27;100282.94;;;3.33;81.50
64876;BME280;51369;49.862;9.908;2023-02-14T07:45:52;100280.25;;;3.33;81.89
64876;BME280;51369;49.862;9.908;2023-02-14T07:48:18;100284.66;;;3.29;82.46
64876;BME280;51369;49.862;9.908;2023-02-14T07:50:43;100278.34;;;3.25;82.60
64876;BME280;51369;49.862;9.908;2023-02-14T07:53:09;100281.91;;;3.24;82.40
64876;BME280;51369;49.862;9.908;2023-02-14T07:55:35;100283.69;;;3.24;82.91
64876;BME280;51369;49.862;9.908;2023-02-14T07:58:00;100273.91;;;3.24;81.49
64876;BME280;51369;49.862;9.908;2023-02-14T08:00:26;100281.00;;;3.24;81.74
64876;BME280;51369;49.862;9.908;2023-02-14T08:02:51;100278.34;;;3.25;82.05
64876;BME280;51369;49.862;9.908;2023-02-14T08:05:17;100278.34;;;3.25;81.91
64876;BME280;51369;49.862;9.908;2023-02-14T08:07:43;100279.28;;;3.28;81.69
64876;BME280;51369;49.862;9.908;2023-02-14T08:10:10;100284.63;;;3.28;82.53
64876;BME280;51369;49.862;9.908;2023-02-14T08:12:36;100276.66;;;3.29;82.29
64876;BME280;51369;49.862;9.908;2023-02-14T08:15:20;100282.09;;;3.37;82.94
64876;BME280;51369;49.862;9.908;2023-02-14T08:18:04;100281.28;;;3.41;82.36
64876;BME280;51369;49.862;9.908;2023-02-14T08:20:29;100280.47;;;3.45;81.93
64876;BME280;51369;49.862;9.908;2023-02-14T08:22:55;100283.16;;;3.48;82.14
64876;BME280;51369;49.862;9.908;2023-02-14T08:25:20;100271.59;;;3.49;82.64
64876;BME280;51369;49.862;9.908;2023-02-14T08:27:46;100283.22;;;3.52;81.82
64876;BME280;51369;49.862;9.908;2023-02-14T08:30:12;100280.56;;;3.54;82.99
64876;BME280;51369;49.862;9.908;2023-02-14T08:32:37;100280.59;;;3.55;82.53
64876;BME280;51369;49.862;9.908;2023-02-14T08:35:03;100280.63;;;3.57;82.10
64876;BME280;51369;49.862;9.908;2023-02-14T08:37:28;100269.94;;;3.57;82.34
64876;BME280;51369;49.862;9.908;2023-02-14T08:39:53;100276.19;;;3.57;82.63
64876;BME280;51369;49.862;9.908;2023-02-14T08:42:19;100286.00;;;3.58;82.13
64876;BME280;51369;49.862;9.908;2023-02-14T08:44:44;100279.78;;;3.59;81.57
64876;BME280;51369;49.862;9.908;2023-02-14T08:47:09;100278.00;;;3.60;81.74
64876;BME280;51369;49.862;9.908;2023-02-14T08:49:35;100279.81;;;3.61;81.24
64876;BME280;51369;49.862;9.908;2023-02-14T08:52:00;100280.72;;;3.63;82.69
64876;BME280;51369;49.862;9.908;2023-02-14T08:54:25;100276.31;;;3.67;82.28
64876;BME280;51369;49.862;9.908;2023-02-14T08:56:51;100273.69;;;3.70;82.13
64876;BME280;51369;49.862;9.908;2023-02-14T08:59:16;100275.53;;;3.74;82.05
64876;BME280;51369;49.862;9.908;2023-02-14T09:01:41;100277.38;;;3.78;82.41
64876;BME280;51369;49.862;9.908;2023-02-14T09:04:07;100275.66;;;3.81;82.29
64876;BME280;51369;49.862;9.908;2023-02-14T09:06:36;100274.81;;;3.84;83.30
64876;BME280;51369;49.862;9.908;2023-02-14T09:09:02;100277.53;;;3.87;82.07
64876;BME280;51369;49.862;9.908;2023-02-14T09:11:28;100277.53;;;3.88;82.36
64876;BME280;51369;49.862;9.908;2023-02-14T09:13:53;100274.91;;;3.91;82.70
64876;BME280;51369;49.862;9.908;2023-02-14T09:16:22;100272.25;;;3.93;82.72
64876;BME280;51369;49.862;9.908;2023-02-14T09:18:49;100274.03;;;3.92;81.89
64876;BME280;51369;49.862;9.908;2023-02-14T09:21:20;100270.44;;;3.90;82.00
64876;BME280;51369;49.862;9.908;2023-02-14T09:23:46;100281.19;;;3.93;82.14
64876;BME280;51369;49.862;9.908;2023-02-14T09:26:13;100268.66;;;3.89;81.39
64876;BME280;51369;49.862;9.908;2023-02-14T09:28:39;100273.13;;;3.90;82.19
64876;BME280;51369;49.862;9.908;2023-02-14T09:31:19;100269.53;;;3.90;81.83
64876;BME280;51369;49.862;9.908;2023-02-14T09:33:46;100274.97;;;3.95;82.42
64876;BME280;51369;49.862;9.908;2023-02-14T09:36:30;100272.31;;;3.96;81.54
64876;BME280;51369;49.862;9.908;2023-02-14T09:39:14;100274.97;;;3.96;82.03
64876;BME280;51369;49.862;9.908;2023-02-14T09:44:33;100273.25;;;4.00;81.39
64876;BME280;51369;49.862;9.908;2023-02-14T09:47:08;100270.63;;;4.03;80.99
64876;BME280;51369;49.862;9.908;2023-02-14T09:49:37;100277.81;;;4.07;81.96
64876;BME280;51369;49.862;9.908;2023-02-14T09:52:05;100268.03;;;4.09;82.26
64876;BME280;51369;49.862;9.908;2023-02-14T09:54:33;100277.00;;;4.12;82.27
64876;BME280;51369;49.862;9.908;2023-02-14T09:57:22;100266.28;;;4.12;82.32
64876;BME280;51369;49.862;9.908;2023-02-14T09:59:52;100260.97;;;4.14;81.83
64876;BME280;51369;49.862;9.908;2023-02-14T10:02:34;100259.19;;;4.14;81.62
64876;BME280;51369;49.862;9.908;2023-02-14T10:07:55;100263.59;;;4.11;80.82
64876;BME280;51369;49.862;9.908;2023-02-14T10:10:30;100253.81;;;4.13;80.61
64876;BME280;51369;49.862;9.908;2023-02-14T10:13:15;100260.94;;;4.12;81.45
64876;BME280;51369;49.862;9.908;2023-02-14T10:16:11;100261.88;;;4.14;80.67
64876;BME280;51369;49.862;9.908;2023-02-14T10:18:49;100262.81;;;4.18;81.18
64876;BME280;51369;49.862;9.908;2023-02-14T10:21:26;100265.47;;;4.18;81.01
64876;BME280;51369;49.862;9.908;2023-02-14T10:24:20;100263.72;;;4.20;80.70
64876;BME280;51369;49.862;9.908;2023-02-14T10:26:48;100268.22;;;4.22;81.01
64876;BME280;51369;49.862;9.908;2023-02-14T10:29:17;100268.22;;;4.22;80.75
64876;BME280;51369;49.862;9.908;2023-02-14T10:31:50;100262.88;;;4.24;80.77
64876;BME280;51369;49.862;9.908;2023-02-14T10:34:34;100257.53;;;4.24;81.43
64876;BME280;51369;49.862;9.908;2023-02-14T10:37:31;100262.00;;;4.25;80.92
64876;BME280;51369;49.862;9.908;2023-02-14T10:42:44;100253.97;;;4.25;80.29
64876;BME280;51369;49.862;9.908;2023-02-14T10:45:44;100254.91;;;4.27;81.27
64876;BME280;51369;49.862;9.908;2023-02-14T10:48:35;100239.81;;;4.32;81.40
64876;BME280;51369;49.862;9.908;2023-02-14T10:53:56;100239.03;;;4.42;80.75
64876;BME280;51369;49.862;9.908;2023-02-14T10:56:32;100239.13;;;4.50;80.77
64876;BME280;51369;49.862;9.908;2023-02-14T10:59:10;100240.06;;;4.55;81.92
64876;BME280;51369;49.862;9.908;2023-02-14T11:01:38;100234.78;;;4.60;81.56
64876;BME280;51369;49.862;9.908;2023-02-14T11:04:04;100244.63;;;4.64;81.03
64876;BME280;51369;49.862;9.908;2023-02-14T11:06:33;100225.91;;;4.65;80.88
64876;BME280;51369;49.862;9.908;2023-02-14T11:08:59;100230.41;;;4.68;81.27
64876;BME280;51369;49.862;9.908;2023-02-14T11:11:32;100228.66;;;4.70;80.89
64876;BME280;51369;49.862;9.908;2023-02-14T11:16:42;100226.94;;;4.78;81.61
64876;BME280;51369;49.862;9.908;2023-02-14T11:21:44;100218.06;;;4.83;80.87
64876;BME280;51369;49.862;9.908;2023-02-14T11:26:47;100202.91;;;4.82;80.57
64876;BME280;51369;49.862;9.908;2023-02-14T11:29:22;100203.78;;;4.81;80.14
64876;BME280;51369;49.862;9.908;2023-02-14T11:31:48;100201.13;;;4.83;79.84
64876;BME280;51369;49.862;9.908;2023-02-14T11:34:24;100190.38;;;4.80;80.02
64876;BME280;51369;49.862;9.908;2023-02-14T11:36:51;100184.16;;;4.82;80.70
64876;BME280;51369;49.862;9.908;2023-02-14T11:39:33;100184.13;;;4.78;79.85
64876;BME280;51369;49.862;9.908;2023-02-14T11:42:04;100181.44;;;4.78;79.87
64876;BME280;51369;49.862;9.908;2023-02-14T11:44:31;100178.81;;;4.82;79.81
64876;BME280;51369;49.862;9.908;2023-02-14T11:47:24;100180.63;;;4.85;80.41
64876;BME280;51369;49.862;9.908;2023-02-14T11:50:22;100185.09;;;4.87;79.58
64876;BME280;51369;49.862;9.908;2023-02-14T11:52:52;100175.31;;;4.89;79.50
64876;BME280;51369;49.862;9.908;2023-02-14T11:55:28;100176.19;;;4.88;79.90
64876;BME280;51369;49.862;9.908;2023-02-14T11:57:55;100170.84;;;4.88;79.63
64876;BME280;51369;49.862;9.908;2023-02-14T12:00:23;100173.50;;;4.87;79.93
64876;BME280;51369;49.862;9.908;2023-02-14T12:02:51;100166.38;;;4.89;79.92
64876;BME280;51369;49.862;9.908;2023-02-14T12:08:03;100162.84;;;4.92;80.00
64876;BME280;51369;49.862;9.908;2023-02-14T12:10:29;100153.94;;;4.94;79.75
64876;BME280;51369;49.862;9.908;2023-02-14T12:12:58;100160.19;;;4.95;79.48
64876;BME280;51369;49.862;9.908;2023-02-14T12:15:36;100149.47;;;4.95;80.04
64876;BME280;51369;49.862;9.908;2023-02-14T12:20:57;100152.16;;;4.96;78.91
64876;BME280;51369;49.862;9.908;2023-02-14T12:26:02;100150.34;;;4.92;79.76
64876;BME280;51369;49.862;9.908;2023-02-14T12:28:34;100147.69;;;4.92;79.20
64876;BME280;51369;49.862;9.908;2023-02-14T12:31:10;100146.78;;;4.92;78.87
64876;BME280;51369;49.862;9.908;2023-02-14T12:33:36;100149.47;;;4.95;79.39
64876;BME280;51369;49.862;9.908;2023-02-14T12:38:54;100143.22;;;4.94;79.18
64876;BME280;51369;49.862;9.908;2023-02-14T12:47:11;100136.16;;;5.01;80.04
64876;BME280;51369;49.862;9.908;2023-02-14T12:50:01;100122.78;;;5.02;79.38
64876;BME280;51369;49.862;9.908;2023-02-14T12:55:13;100129.94;;;5.05;79.79
64876;BME280;51369;49.862;9.908;2023-02-14T13:00:30;100124.59;;;5.06;79.52
64876;BME280;51369;49.862;9.908;2023-02-14T13:03:06;100127.31;;;5.12;78.87
64876;BME280;51369;49.862;9.908;2023-02-14T13:06:07;100109.41;;;5.07;79.10
64876;BME280;51369;49.862;9.908;2023-02-14T13:19:54;100112.84;;;4.86;77.89
64876;BME280;51369;49.862;9.908;2023-02-14T13:22:24;100100.34;;;4.85;78.18
64876;BME280;51369;49.862;9.908;2023-02-14T13:24:56;100105.66;;;4.80;78.09
64876;BME280;51369;49.862;9.908;2023-02-14T13:27:26;100108.31;;;4.80;78.28
64876;BME280;51369;49.862;9.908;2023-02-14T13:30:03;100103.88;;;4.81;78.14
64876;BME280;51369;49.862;9.908;2023-02-14T13:32:38;100097.63;;;4.80;78.68
64876;BME280;51369;49.862;9.908;2023-02-14T13:35:06;100093.19;;;4.84;78.58
64876;BME280;51369;49.862;9.908;2023-02-14T13:37:32;100098.56;;;4.87;79.19
64876;BME280;51369;49.862;9.908;2023-02-14T13:40:02;100099.47;;;4.87;78.53
64876;BME280;51369;49.862;9.908;2023-02-14T13:50:39;100096.81;;;4.92;79.03
64876;BME280;51369;49.862;9.908;2023-02-14T13:53:11;100103.97;;;4.93;78.70
64876;BME280;51369;49.862;9.908;2023-02-14T13:55:42;100095.06;;;4.94;78.27
64876;BME280;51369;49.862;9.908;2023-02-14T13:58:17;100103.06;;;4.93;78.98
64876;BME280;51369;49.862;9.908;2023-02-14T14:00:48;100101.31;;;4.95;79.15
64876;BME280;51369;49.862;9.908;2023-02-14T14:06:07;100099.53;;;4.97;79.31
64876;BME280;51369;49.862;9.908;2023-02-14T14:08:39;100094.19;;;4.97;78.48
64876;BME280;51369;49.862;9.908;2023-02-14T14:14:25;100086.16;;;4.98;79.34
64876;BME280;51369;49.862;9.908;2023-02-14T14:16:56;100087.06;;;4.99;79.12
64876;BME280;51369;49.862;9.908;2023-02-14T14:22:06;100082.56;;;4.96;79.17
64876;BME280;51369;49.862;9.908;2023-02-14T14:24:36;100083.47;;;4.98;78.43
64876;BME280;51369;49.862;9.908;2023-02-14T14:29:44;100072.75;;;4.94;78.89
64876;BME280;51369;49.862;9.908;2023-02-14T14:32:26;100070.94;;;4.93;78.68
64876;BME280;51369;49.862;9.908;2023-02-14T14:34:54;100070.06;;;4.92;78.33
64876;BME280;51369;49.862;9.908;2023-02-14T14:37:29;100073.59;;;4.89;78.87
64876;BME280;51369;49.862;9.908;2023-02-14T14:40:03;100069.13;;;4.88;78.02
64876;BME280;51369;49.862;9.908;2023-02-14T14:42:33;100062.88;;;4.85;78.24
64876;BME280;51369;49.862;9.908;2023-02-14T14:45:03;100072.66;;;4.81;77.75
64876;BME280;51369;49.862;9.908;2023-02-14T14:47:43;100060.13;;;4.76;78.52
64876;BME280;51369;49.862;9.908;2023-02-14T14:50:16;100057.44;;;4.73;78.23
64876;BME280;51369;49.862;9.908;2023-02-14T14:52:45;100048.47;;;4.69;78.42
64876;BME280;51369;49.862;9.908;2023-02-14T14:55:21;100052.00;;;4.65;78.33
64876;BME280;51369;49.862;9.908;2023-02-14T14:57:59;100059.16;;;4.65;78.21
64876;BME280;51369;49.862;9.908;2023-02-14T15:00:30;100061.78;;;4.62;78.61
64876;BME280;51369;49.862;9.908;2023-02-14T15:05:36;100050.16;;;4.56;78.30
64876;BME280;51369;49.862;9.908;2023-02-14T15:08:31;100049.25;;;4.53;78.31
64876;BME280;51369;49.862;9.908;2023-02-14T15:13:39;100042.09;;;4.50;78.23
64876;BME280;51369;49.862;9.908;2023-02-14T15:16:19;100043.88;;;4.50;78.02